Ruili, China
Current Conditions -  °F | °C
As of 12:30 PM on Sunday 23 Nov 2014 (Local Time) from VYMD Reporting Station
Few Clouds Few Clouds  
Wind Chill: 86°   Ceiling: Unl
Heat Index: 93°   Visibility: 4mi
Dew Point: 73°   Wind: 0mph
Humidity: 66%   Direction: NA
Pressure: 29.91"   Gusts: NA
Location:  24.02°N, 97.83°E
Report Text: VYMD 230430Z 00000KT 7000 FEW025 30/23 Q1013 NOSIG
Loading
Personal Weather Stations






























Interactive Weather Map New forecast layout! Learn more

10-Day Weather Forecast

Advertisements
Track Severe Weather on mobile